Clogher, United Kingdom
Current Conditions -  °F | °C
As of 6:20 PM on Friday 31 Oct 2014 (Local Time) from EGAA Reporting Station
Light Rain Light Rain  
Wind Chill: 55°   Ceiling: 1000
Heat Index: 55°   Visibility: 4mi
Dew Point: 55°   Wind: 17mph
Humidity: 100%   Direction: 240°WSW
Pressure: 29.65"   Gusts: NA
Location:  54.41°N, 7.17°W
Report Text: EGAA 311820Z 24015KT 6000 -RA SCT004 SCT006 BKN010 13/13 Q1004 RERA
Loading
Personal Weather Stations






























Interactive Weather Map New forecast layout! Learn more

10-Day Weather Forecast

Advertisements
Track Severe Weather on mobile